sensor_id;sensor_type;location;lat;lon;timestamp;P1;durP1;ratioP1;P2;durP2;ratioP2
28068;SDS011;15382;47.578;8.086;2022-10-30T00:04:25;13.87;;;3.90;;
28068;SDS011;15382;47.578;8.086;2022-10-30T00:14:26;21.53;;;5.00;;
28068;SDS011;15382;47.578;8.086;2022-10-30T00:24:27;12.37;;;4.03;;
28068;SDS011;15382;47.578;8.086;2022-10-30T00:34:29;16.77;;;3.67;;
28068;SDS011;15382;47.578;8.086;2022-10-30T00:44:48;20.00;;;3.90;;
28068;SDS011;15382;47.578;8.086;2022-10-30T00:54:54;14.98;;;4.93;;
28068;SDS011;15382;47.578;8.086;2022-10-30T01:04:56;17.52;;;5.05;;
28068;SDS011;15382;47.578;8.086;2022-10-30T01:14:57;16.67;;;5.83;;
28068;SDS011;15382;47.578;8.086;2022-10-30T01:35:51;25.10;;;6.53;;
28068;SDS011;15382;47.578;8.086;2022-10-30T02:06:23;15.27;;;6.03;;
28068;SDS011;15382;47.578;8.086;2022-10-30T02:26:25;13.15;;;5.13;;
28068;SDS011;15382;47.578;8.086;2022-10-30T02:36:26;22.07;;;6.13;;
28068;SDS011;15382;47.578;8.086;2022-10-30T02:46:28;18.00;;;6.45;;
28068;SDS011;15382;47.578;8.086;2022-10-30T02:56:29;24.57;;;6.63;;
28068;SDS011;15382;47.578;8.086;2022-10-30T03:06:30;11.47;;;5.37;;
28068;SDS011;15382;47.578;8.086;2022-10-30T03:16:31;19.93;;;5.77;;
28068;SDS011;15382;47.578;8.086;2022-10-30T03:26:32;13.77;;;5.60;;
28068;SDS011;15382;47.578;8.086;2022-10-30T03:36:39;13.40;;;5.93;;
28068;SDS011;15382;47.578;8.086;2022-10-30T03:46:40;21.30;;;5.75;;
28068;SDS011;15382;47.578;8.086;2022-10-30T04:06:54;11.03;;;6.13;;
28068;SDS011;15382;47.578;8.086;2022-10-30T04:26:57;13.48;;;5.45;;
28068;SDS011;15382;47.578;8.086;2022-10-30T04:46:59;11.50;;;4.72;;
28068;SDS011;15382;47.578;8.086;2022-10-30T04:57:01;18.45;;;5.35;;
28068;SDS011;15382;47.578;8.086;2022-10-30T05:07:03;18.35;;;5.47;;
28068;SDS011;15382;47.578;8.086;2022-10-30T05:17:04;21.27;;;6.73;;
28068;SDS011;15382;47.578;8.086;2022-10-30T05:27:07;11.40;;;5.80;;
28068;SDS011;15382;47.578;8.086;2022-10-30T05:37:09;14.55;;;5.10;;
28068;SDS011;15382;47.578;8.086;2022-10-30T05:47:10;15.83;;;5.10;;
28068;SDS011;15382;47.578;8.086;2022-10-30T05:57:12;15.40;;;5.55;;
28068;SDS011;15382;47.578;8.086;2022-10-30T06:07:14;8.60;;;5.13;;
28068;SDS011;15382;47.578;8.086;2022-10-30T06:17:15;16.98;;;5.80;;
28068;SDS011;15382;47.578;8.086;2022-10-30T06:27:42;19.48;;;6.68;;
28068;SDS011;15382;47.578;8.086;2022-10-30T06:37:46;10.83;;;6.30;;
28068;SDS011;15382;47.578;8.086;2022-10-30T06:47:48;11.77;;;6.45;;
28068;SDS011;15382;47.578;8.086;2022-10-30T06:57:53;17.15;;;6.97;;
28068;SDS011;15382;47.578;8.086;2022-10-30T07:08:13;15.52;;;6.60;;
28068;SDS011;15382;47.578;8.086;2022-10-30T07:18:14;11.87;;;5.40;;
28068;SDS011;15382;47.578;8.086;2022-10-30T07:28:16;14.97;;;6.20;;
28068;SDS011;15382;47.578;8.086;2022-10-30T07:38:26;12.50;;;4.90;;
28068;SDS011;15382;47.578;8.086;2022-10-30T07:48:31;10.80;;;5.68;;
28068;SDS011;15382;47.578;8.086;2022-10-30T07:58:40;10.88;;;5.50;;
28068;SDS011;15382;47.578;8.086;2022-10-30T08:09:08;8.98;;;4.68;;
28068;SDS011;15382;47.578;8.086;2022-10-30T08:19:10;7.85;;;5.28;;
28068;SDS011;15382;47.578;8.086;2022-10-30T08:39:13;11.23;;;5.97;;
28068;SDS011;15382;47.578;8.086;2022-10-30T08:49:18;13.43;;;7.10;;
28068;SDS011;15382;47.578;8.086;2022-10-30T08:59:26;14.43;;;6.53;;
28068;SDS011;15382;47.578;8.086;2022-10-30T09:09:31;10.10;;;5.80;;
28068;SDS011;15382;47.578;8.086;2022-10-30T09:19:34;11.02;;;6.43;;
28068;SDS011;15382;47.578;8.086;2022-10-30T09:29:35;11.03;;;7.07;;
28068;SDS011;15382;47.578;8.086;2022-10-30T09:39:39;10.98;;;5.90;;
28068;SDS011;15382;47.578;8.086;2022-10-30T10:10:18;9.68;;;6.70;;
28068;SDS011;15382;47.578;8.086;2022-10-30T10:20:38;12.30;;;7.25;;
28068;SDS011;15382;47.578;8.086;2022-10-30T10:41:48;11.13;;;5.57;;
28068;SDS011;15382;47.578;8.086;2022-10-30T10:51:54;14.90;;;7.68;;
28068;SDS011;15382;47.578;8.086;2022-10-30T11:12:30;16.38;;;7.35;;
28068;SDS011;15382;47.578;8.086;2022-10-30T11:22:36;27.17;;;7.40;;
28068;SDS011;15382;47.578;8.086;2022-10-30T11:32:39;13.70;;;7.03;;
28068;SDS011;15382;47.578;8.086;2022-10-30T11:42:47;15.30;;;7.03;;
28068;SDS011;15382;47.578;8.086;2022-10-30T11:53:00;12.93;;;6.40;;
28068;SDS011;15382;47.578;8.086;2022-10-30T12:03:25;18.30;;;6.80;;
28068;SDS011;15382;47.578;8.086;2022-10-30T12:13:31;15.35;;;7.28;;
28068;SDS011;15382;47.578;8.086;2022-10-30T12:23:36;13.70;;;6.30;;
28068;SDS011;15382;47.578;8.086;2022-10-30T12:33:40;15.23;;;7.65;;
28068;SDS011;15382;47.578;8.086;2022-10-30T13:25:02;16.27;;;7.75;;
28068;SDS011;15382;47.578;8.086;2022-10-30T13:55:45;19.52;;;6.90;;
28068;SDS011;15382;47.578;8.086;2022-10-30T14:05:50;12.32;;;5.60;;
28068;SDS011;15382;47.578;8.086;2022-10-30T14:16:29;14.80;;;6.15;;
28068;SDS011;15382;47.578;8.086;2022-10-30T14:26:36;16.73;;;6.80;;
28068;SDS011;15382;47.578;8.086;2022-10-30T14:46:58;18.05;;;7.13;;
28068;SDS011;15382;47.578;8.086;2022-10-30T15:17:54;21.20;;;7.00;;
28068;SDS011;15382;47.578;8.086;2022-10-30T15:27:58;17.77;;;7.00;;
28068;SDS011;15382;47.578;8.086;2022-10-30T15:58:23;20.33;;;5.95;;
28068;SDS011;15382;47.578;8.086;2022-10-30T16:08:24;18.00;;;5.60;;
28068;SDS011;15382;47.578;8.086;2022-10-30T16:18:25;24.07;;;5.70;;
28068;SDS011;15382;47.578;8.086;2022-10-30T16:28:33;15.45;;;6.00;;
28068;SDS011;15382;47.578;8.086;2022-10-30T16:38:36;18.50;;;6.18;;
28068;SDS011;15382;47.578;8.086;2022-10-30T16:48:38;17.38;;;6.50;;
28068;SDS011;15382;47.578;8.086;2022-10-30T16:59:05;13.98;;;6.00;;
28068;SDS011;15382;47.578;8.086;2022-10-30T17:09:27;19.45;;;5.28;;
28068;SDS011;15382;47.578;8.086;2022-10-30T17:39:36;14.55;;;5.60;;
28068;SDS011;15382;47.578;8.086;2022-10-30T17:49:37;21.50;;;6.07;;
28068;SDS011;15382;47.578;8.086;2022-10-30T17:59:38;22.13;;;6.40;;
28068;SDS011;15382;47.578;8.086;2022-10-30T18:09:40;15.02;;;5.53;;
28068;SDS011;15382;47.578;8.086;2022-10-30T18:19:42;16.70;;;5.15;;
28068;SDS011;15382;47.578;8.086;2022-10-30T18:29:42;13.27;;;4.63;;
28068;SDS011;15382;47.578;8.086;2022-10-30T18:39:43;21.70;;;6.17;;
28068;SDS011;15382;47.578;8.086;2022-10-30T18:49:44;11.77;;;4.93;;
28068;SDS011;15382;47.578;8.086;2022-10-30T18:59:45;9.83;;;5.17;;
28068;SDS011;15382;47.578;8.086;2022-10-30T19:09:45;22.80;;;5.10;;
28068;SDS011;15382;47.578;8.086;2022-10-30T19:19:46;13.73;;;4.27;;
28068;SDS011;15382;47.578;8.086;2022-10-30T19:29:47;11.33;;;4.07;;
28068;SDS011;15382;47.578;8.086;2022-10-30T19:39:48;10.77;;;4.80;;
28068;SDS011;15382;47.578;8.086;2022-10-30T19:49:49;8.93;;;3.90;;
28068;SDS011;15382;47.578;8.086;2022-10-30T19:59:50;15.87;;;3.90;;
28068;SDS011;15382;47.578;8.086;2022-10-30T20:09:50;9.60;;;4.30;;
28068;SDS011;15382;47.578;8.086;2022-10-30T20:19:51;15.23;;;4.83;;
28068;SDS011;15382;47.578;8.086;2022-10-30T20:29:52;13.17;;;4.20;;
28068;SDS011;15382;47.578;8.086;2022-10-30T20:39:53;12.17;;;4.03;;
28068;SDS011;15382;47.578;8.086;2022-10-30T20:49:53;9.80;;;4.00;;
28068;SDS011;15382;47.578;8.086;2022-10-30T20:59:54;17.80;;;4.23;;
28068;SDS011;15382;47.578;8.086;2022-10-30T21:09:55;15.23;;;3.70;;
28068;SDS011;15382;47.578;8.086;2022-10-30T21:19:56;11.45;;;3.38;;
28068;SDS011;15382;47.578;8.086;2022-10-30T21:29:57;10.00;;;3.13;;
28068;SDS011;15382;47.578;8.086;2022-10-30T21:39:58;6.93;;;3.00;;
28068;SDS011;15382;47.578;8.086;2022-10-30T21:49:59;10.87;;;2.90;;
28068;SDS011;15382;47.578;8.086;2022-10-30T22:00:00;14.63;;;2.67;;
28068;SDS011;15382;47.578;8.086;2022-10-30T22:10:01;13.00;;;2.60;;
28068;SDS011;15382;47.578;8.086;2022-10-30T22:30:03;10.23;;;2.55;;
28068;SDS011;15382;47.578;8.086;2022-10-30T22:50:05;7.90;;;2.70;;
28068;SDS011;15382;47.578;8.086;2022-10-30T23:00:06;10.68;;;3.10;;
28068;SDS011;15382;47.578;8.086;2022-10-30T23:10:08;9.00;;;2.50;;
28068;SDS011;15382;47.578;8.086;2022-10-30T23:20:09;7.33;;;2.70;;
28068;SDS011;15382;47.578;8.086;2022-10-30T23:40:11;9.97;;;3.30;;
28068;SDS011;15382;47.578;8.086;2022-10-30T23:50:12;7.90;;;4.27;;
